Time;durP1;ratioP1;P1;durP2;ratioP2;P2;SDS_P1;SDS_P2;PMS_P1;PMS_P2;Temp;Humidity;BMP_temperature;BMP_pressure;BME280_temperature;BME280_humidity;BME280_pressure;Samples;Min_cycle;Max_cycle;Signal;HPM_P1;HPM_P2
2022/03/11 00:01:03;;;;;;;37.13;15.05;;;;;;;-5.37;55.50;100226.16;5009846;28;20025;-65
2022/03/11 00:03:29;;;;;;;35.28;14.48;;;;;;;-5.40;55.70;100224.59;5009364;28;20432;-65
2022/03/11 00:05:55;;;;;;;38.47;15.43;;;;;;;-5.40;55.80;100224.59;5009864;28;20049;-66
2022/03/11 00:08:20;;;;;;;35.03;13.77;;;;;;;-5.41;55.44;100224.75;5009522;28;20049;-66
2022/03/11 00:10:46;;;;;;;38.47;15.40;;;;;;;-5.37;55.42;100226.16;5005824;28;20025;-66
2022/03/11 00:13:11;;;;;;;33.95;13.43;;;;;;;-5.38;55.77;100227.13;5008648;28;20018;-66
2022/03/11 00:15:37;;;;;;;35.22;14.10;;;;;;;-5.34;55.51;100225.00;5009525;28;20022;-66
2022/03/11 00:18:04;;;;;;;31.55;13.40;;;;;;;-5.31;55.54;100222.03;5009255;28;20026;-65
2022/03/11 00:20:31;;;;;;;33.53;13.55;;;;;;;-5.31;55.59;100220.22;5009166;28;20037;-66
2022/03/11 00:22:57;;;;;;;33.58;14.93;;;;;;;-5.32;56.14;100218.53;5007589;28;20394;-65
2022/03/11 00:25:23;;;;;;;29.02;12.90;;;;;;;-5.34;55.49;100212.47;5010212;28;20359;-65
2022/03/11 00:27:50;;;;;;;34.33;14.90;;;;;;;-5.39;55.77;100212.91;5010616;28;20030;-66
2022/03/11 00:30:16;;;;;;;33.90;13.70;;;;;;;-5.43;55.74;100208.03;5009569;28;20093;-66
2022/03/11 00:32:42;;;;;;;30.13;13.57;;;;;;;-5.47;56.36;100203.97;5012075;28;20113;-65
2022/03/11 00:35:10;;;;;;;34.60;14.20;;;;;;;-5.50;55.79;100201.59;5014363;28;20030;-66
2022/03/11 00:37:36;;;;;;;35.42;15.35;;;;;;;-5.51;56.02;100199.91;5014362;28;20572;-65
2022/03/11 00:40:02;;;;;;;35.22;14.20;;;;;;;-5.55;56.08;100194.84;5013634;28;20494;-66
2022/03/11 00:42:28;;;;;;;41.10;16.80;;;;;;;-5.59;56.06;100196.13;5013843;28;20116;-65
2022/03/11 00:44:53;;;;;;;37.80;14.68;;;;;;;-5.61;57.12;100191.94;5014504;28;20112;-66
2022/03/11 00:47:19;;;;;;;43.88;16.15;;;;;;;-5.61;56.83;100183.91;5014456;28;20025;-65
2022/03/11 00:49:44;;;;;;;33.65;14.10;;;;;;;-5.64;57.13;100179.69;5014046;28;20445;-66
2022/03/11 00:52:10;;;;;;;41.80;15.52;;;;;;;-5.69;57.45;100182.81;5013485;28;20072;-65
2022/03/11 00:54:35;;;;;;;41.30;15.48;;;;;;;-5.68;57.18;100184.50;5013920;28;20034;-66
2022/03/11 00:57:00;;;;;;;38.05;14.48;;;;;;;-5.69;57.12;100184.63;5014129;28;20030;-66
2022/03/11 00:59:26;;;;;;;34.53;13.98;;;;;;;-5.70;56.57;100188.28;5013962;28;20072;-66
2022/03/11 01:01:51;;;;;;;37.00;14.85;;;;;;;-5.68;56.81;100192.53;5013334;28;20041;-66
2022/03/11 01:04:17;;;;;;;35.20;15.40;;;;;;;-5.66;56.12;100200.38;5013836;28;20426;-66
2022/03/11 01:06:42;;;;;;;34.15;14.13;;;;;;;-5.67;56.16;100193.34;5013818;28;20484;-66
2022/03/11 01:09:07;;;;;;;36.00;14.27;;;;;;;-5.70;55.96;100188.28;5013775;28;20060;-66
2022/03/11 01:11:33;;;;;;;33.25;13.88;;;;;;;-5.77;56.43;100190.72;5012637;28;20037;-65
2022/03/11 01:13:59;;;;;;;31.52;13.57;;;;;;;-5.81;56.38;100183.97;5013747;28;20026;-66
2022/03/11 01:16:24;;;;;;;35.55;14.10;;;;;;;-5.86;56.79;100184.44;5013626;28;20359;-65
2022/03/11 01:18:50;;;;;;;31.15;12.38;;;;;;;-5.88;56.35;100185.56;5013690;28;20120;-66
2022/03/11 01:21:16;;;;;;;32.20;13.73;;;;;;;-5.92;56.58;100178.84;5013184;28;20062;-66
2022/03/11 01:23:41;;;;;;;33.00;14.25;;;;;;;-5.94;56.30;100178.97;5013655;28;20022;-66
2022/03/11 01:26:07;;;;;;;34.45;14.43;;;;;;;-5.94;56.14;100178.97;5013334;28;20025;-66
2022/03/11 01:28:33;;;;;;;36.92;14.98;;;;;;;-6.01;56.70;100184.09;5012046;28;20022;-66
2022/03/11 01:30:59;;;;;;;32.55;13.77;;;;;;;-6.05;56.89;100180.03;5013169;28;20369;-65
2022/03/11 01:33:24;;;;;;;30.75;13.52;;;;;;;-6.04;57.09;100171.03;5012852;28;20018;-65
2022/03/11 01:35:50;;;;;;;36.92;15.23;;;;;;;-5.99;56.87;100165.22;5017496;28;20040;-66
2022/03/11 01:38:15;;;;;;;35.08;14.48;;;;;;;-5.98;56.63;100164.22;5033046;28;20025;-65
2022/03/11 01:40:41;;;;;;;38.28;14.77;;;;;;;-6.04;57.08;100162.16;5032613;28;20540;-66
2022/03/11 01:43:17;;;;;;;37.97;15.70;;;;;;;-6.10;56.76;100160.94;5030805;28;20433;-66
2022/03/11 01:45:43;;;;;;;33.72;15.13;;;;;;;-6.16;57.09;100156.16;5033088;28;20039;-66
2022/03/11 01:48:10;;;;;;;33.25;14.07;;;;;;;-6.21;57.17;100153.94;5032911;28;20029;-65
2022/03/11 01:50:38;;;;;;;32.55;13.55;;;;;;;-6.20;57.38;100157.44;5032632;28;20465;-66
2022/03/11 01:53:04;;;;;;;33.20;14.45;;;;;;;-6.21;57.81;100158.44;5032337;28;20053;-65
2022/03/11 01:55:29;;;;;;;34.90;14.93;;;;;;;-6.21;58.49;100147.75;5032573;28;20436;-66
2022/03/11 01:57:54;;;;;;;30.83;12.70;;;;;;;-6.21;58.37;100153.09;5032630;28;20026;-66
2022/03/11 02:00:20;;;;;;;30.27;12.95;;;;;;;-6.24;58.09;100151.56;5032692;28;20021;-66
2022/03/11 02:02:45;;;;;;;29.73;13.07;;;;;;;-6.24;57.96;100148.03;5032061;28;20036;-65
2022/03/11 02:05:11;;;;;;;34.55;14.10;;;;;;;-6.25;58.34;100149.88;5030358;28;20104;-66
2022/03/11 02:07:36;;;;;;;33.63;15.32;;;;;;;-6.26;58.32;100160.69;5012924;28;20080;-66
2022/03/11 02:10:02;;;;;;;33.72;14.88;;;;;;;-6.26;58.40;100156.19;5012423;28;20089;-66
2022/03/11 02:12:29;;;;;;;32.92;15.00;;;;;;;-6.31;57.95;100159.28;5011871;28;20068;-66
2022/03/11 02:14:55;;;;;;;30.95;13.82;;;;;;;-6.33;58.12;100166.63;5012693;28;20057;-66
2022/03/11 02:17:20;;;;;;;37.60;16.00;;;;;;;-6.33;57.70;100163.97;5011264;28;20148;-66
2022/03/11 02:19:47;;;;;;;35.17;14.75;;;;;;;-6.33;57.74;100169.31;5012451;28;20033;-66
2022/03/11 02:22:15;;;;;;;36.30;14.90;;;;;;;-6.34;57.68;100162.28;5010758;28;20049;-66
2022/03/11 02:24:40;;;;;;;32.33;14.63;;;;;;;-6.35;57.89;100165.06;5012331;28;20477;-66
2022/03/11 02:27:06;;;;;;;32.75;14.07;;;;;;;-6.35;57.64;100170.41;5012248;28;20033;-66
2022/03/11 02:29:31;;;;;;;30.85;13.75;;;;;;;-6.36;57.12;100168.72;5012667;28;20037;-66
2022/03/11 02:31:57;;;;;;;33.55;13.20;;;;;;;-6.40;57.02;100164.66;5011576;28;20037;-66
2022/03/11 02:34:22;;;;;;;34.65;14.02;;;;;;;-6.45;57.14;100157.09;5012087;28;20034;-66
2022/03/11 02:36:47;;;;;;;31.92;13.82;;;;;;;-6.49;57.70;100155.69;5012121;28;20022;-66
2022/03/11 02:39:13;;;;;;;33.65;13.63;;;;;;;-6.57;57.43;100156.41;5012116;28;20030;-65
2022/03/11 02:41:41;;;;;;;30.20;13.10;;;;;;;-6.62;57.70;100159.50;5011472;28;20410;-66
2022/03/11 02:44:07;;;;;;;32.53;12.57;;;;;;;-6.65;58.25;100162.44;5031882;28;20029;-66
2022/03/11 02:46:32;;;;;;;33.17;13.48;;;;;;;-6.67;58.29;100153.75;5031752;28;20037;-66
2022/03/11 02:48:58;;;;;;;34.58;13.43;;;;;;;-6.68;58.54;100149.38;5031794;28;20525;-66
2022/03/11 02:51:23;;;;;;;31.75;13.13;;;;;;;-6.72;58.07;100150.66;5031014;28;20040;-66
2022/03/11 02:53:48;;;;;;;36.25;15.07;;;;;;;-6.70;58.15;100153.19;5031579;28;20021;-66
2022/03/11 02:56:15;;;;;;;35.17;13.48;;;;;;;-6.71;58.79;100147.00;5031513;28;20025;-66
2022/03/11 02:58:41;;;;;;;31.88;13.82;;;;;;;-6.71;58.91;100151.50;5031348;28;20033;-66
2022/03/11 03:01:07;;;;;;;29.42;14.13;;;;;;;-6.73;58.70;100152.50;5031430;28;20037;-66
2022/03/11 03:03:32;;;;;;;36.63;15.13;;;;;;;-6.73;58.86;100151.66;5030878;28;20042;-66
2022/03/11 03:05:58;;;;;;;35.40;13.75;;;;;;;-6.76;59.24;100158.13;5022553;28;20030;-66
2022/03/11 03:08:23;;;;;;;35.83;14.85;;;;;;;-6.75;59.03;100158.97;5010034;28;20406;-66
2022/03/11 03:10:49;;;;;;;34.88;15.02;;;;;;;-6.74;58.83;100155.31;5011683;28;20061;-66
2022/03/11 03:13:14;;;;;;;30.50;13.20;;;;;;;-6.71;58.64;100149.66;5010860;28;20482;-66
2022/03/11 03:15:40;;;;;;;38.85;14.13;;;;;;;-6.71;59.20;100149.66;5011541;28;20109;-66
2022/03/11 03:18:06;;;;;;;34.38;14.85;;;;;;;-6.69;59.28;100152.22;5011116;28;20034;-66
2022/03/11 03:20:31;;;;;;;37.17;15.07;;;;;;;-6.68;59.24;100156.56;5010177;28;20096;-66
2022/03/11 03:22:56;;;;;;;35.88;15.43;;;;;;;-6.70;59.20;100163.88;5010907;28;20530;-66
2022/03/11 03:25:24;;;;;;;36.53;15.18;;;;;;;-6.71;59.09;100156.84;5011638;28;20030;-66
2022/03/11 03:27:49;;;;;;;44.83;16.80;;;;;;;-6.71;58.80;100157.66;5011510;28;20022;-66
2022/03/11 03:30:15;;;;;;;42.28;16.02;;;;;;;-6.75;59.51;100148.28;5011415;28;20219;-66
2022/03/11 03:32:42;;;;;;;44.33;16.92;;;;;;;-6.79;59.15;100150.38;5010760;28;20026;-66
2022/03/11 03:35:09;;;;;;;43.28;17.40;;;;;;;-6.84;59.18;100147.28;5011481;28;20109;-66
2022/03/11 03:37:34;;;;;;;35.33;14.50;;;;;;;-6.83;59.39;100148.97;5011394;28;20026;-66
2022/03/11 03:40:00;;;;;;;41.60;17.40;;;;;;;-6.86;59.42;100146.59;5011134;28;20033;-66
2022/03/11 03:42:26;;;;;;;36.13;15.52;;;;;;;-6.88;59.34;100154.75;5010726;28;20402;-67
2022/03/11 03:44:53;;;;;;;41.72;17.33;;;;;;;-6.90;59.72;100155.84;5011249;28;20113;-66
2022/03/11 03:47:19;;;;;;;43.75;17.17;;;;;;;-6.88;59.53;100153.91;5009886;28;20477;-66
2022/03/11 03:49:45;;;;;;;40.40;16.98;;;;;;;-6.90;59.57;100138.03;5011137;28;20488;-66
2022/03/11 03:52:12;;;;;;;44.30;15.23;;;;;;;-6.92;59.11;100150.69;5010676;28;20026;-65
2022/03/11 03:54:41;;;;;;;40.65;16.77;;;;;;;-6.93;59.56;100148.16;5010982;28;20029;-66
2022/03/11 03:57:07;;;;;;;42.90;16.52;;;;;;;-6.95;60.00;100150.97;5011162;28;20478;-66
2022/03/11 03:59:33;;;;;;;33.28;14.77;;;;;;;-6.95;59.68;100158.97;5011013;28;20033;-66
2022/03/11 04:01:59;;;;;;;40.13;16.52;;;;;;;-6.95;60.15;100150.13;5010745;28;20029;-66
2022/03/11 04:04:25;;;;;;;44.00;17.27;;;;;;;-6.97;59.98;100157.44;5010773;28;20032;-66
2022/03/11 04:06:50;;;;;;;38.72;16.63;;;;;;;-6.99;60.25;100157.56;5011706;28;20458;-66
2022/03/11 04:09:15;;;;;;;33.75;15.05;;;;;;;-7.01;59.53;100148.84;5014648;28;20704;-66
2022/03/11 04:11:41;;;;;;;35.97;16.27;;;;;;;-7.03;59.77;100146.34;5014378;28;20105;-66
2022/03/11 04:14:07;;;;;;;34.03;15.50;;;;;;;-7.01;60.35;100156.03;5014395;28;20022;-66
2022/03/11 04:16:33;;;;;;;39.88;15.68;;;;;;;-7.02;60.37;100147.16;5014642;28;20399;-66
2022/03/11 04:18:59;;;;;;;39.08;16.80;;;;;;;-7.04;59.72;100152.66;5016126;28;20033;-66
2022/03/11 04:21:24;;;;;;;36.72;16.50;;;;;;;-7.07;60.04;100163.59;5018089;28;20026;-66
2022/03/11 04:23:50;;;;;;;42.35;17.08;;;;;;;-7.09;60.22;100154.03;5016621;28;20029;-66
2022/03/11 04:26:16;;;;;;;40.63;16.23;;;;;;;-7.09;59.96;100162.91;5014610;28;20022;-66
2022/03/11 04:28:42;;;;;;;39.10;16.05;;;;;;;-7.10;60.61;100168.34;5014495;28;20061;-66
2022/03/11 04:31:09;;;;;;;35.70;15.60;;;;;;;-7.12;60.40;100159.66;5014169;28;20069;-66
2022/03/11 04:33:36;;;;;;;32.15;14.43;;;;;;;-7.12;60.26;100165.84;5013704;28;20026;-66
2022/03/11 04:36:03;;;;;;;35.50;15.85;;;;;;;-7.14;60.24;100166.97;5014238;28;20026;-66
2022/03/11 04:38:29;;;;;;;36.38;16.00;;;;;;;-7.18;60.02;100164.56;5013819;28;20390;-66
2022/03/11 04:40:55;;;;;;;39.47;15.65;;;;;;;-7.18;60.05;100167.25;5013806;28;20026;-66
2022/03/11 04:43:21;;;;;;;38.03;15.68;;;;;;;-7.18;59.67;100155.72;5013590;28;20109;-67
2022/03/11 04:45:46;;;;;;;43.72;18.63;;;;;;;-7.21;59.83;100172.84;5029434;28;20083;-66
2022/03/11 04:48:12;;;;;;;52.13;20.95;;;;;;;-7.18;59.89;100171.72;5033913;28;20032;-66
2022/03/11 04:50:38;;;;;;;54.15;21.77;;;;;;;-7.20;59.59;100169.22;5033907;28;20088;-66
2022/03/11 04:53:04;;;;;;;56.17;22.02;;;;;;;-7.18;59.68;100180.59;5033068;28;20029;-66
2022/03/11 04:55:29;;;;;;;64.45;23.88;;;;;;;-7.21;60.04;100172.84;5024624;28;20100;-66
2022/03/11 04:57:54;;;;;;;57.30;24.45;;;;;;;-7.21;60.05;100174.66;5013892;28;20025;-67
2022/03/11 05:00:20;;;;;;;54.55;20.70;;;;;;;-7.23;59.74;100177.47;5013730;28;20378;-66
2022/03/11 05:02:46;;;;;;;49.75;21.83;;;;;;;-7.24;59.97;100178.47;5010423;28;20029;-66
2022/03/11 05:05:13;;;;;;;46.50;19.13;;;;;;;-7.25;60.24;100176.78;5020146;28;20022;-66
2022/03/11 05:07:39;;;;;;;48.45;17.95;;;;;;;-7.25;60.17;100175.91;5013191;28;20532;-66
2022/03/11 05:10:09;;;;;;;42.55;16.70;;;;;;;-7.24;60.52;100186.47;5013147;28;20056;-66
2022/03/11 05:12:38;;;;;;;;;;;;;;;-7.22;61.00;100184.50;5013637;28;20378;-66
2022/03/11 05:15:05;;;;;;;40.78;16.08;;;;;;;-7.18;60.25;100185.06;5013282;28;20035;-66
2022/03/11 05:17:30;;;;;;;41.03;16.67;;;;;;;-7.16;60.54;100187.59;5013844;28;20041;-66
2022/03/11 05:19:56;;;;;;;44.13;17.15;;;;;;;-7.13;61.21;100190.00;5012207;28;20026;-66
2022/03/11 05:22:21;;;;;;;43.05;17.52;;;;;;;-7.12;60.61;100188.97;5013001;28;20033;-66
2022/03/11 05:24:47;;;;;;;42.45;17.25;;;;;;;-7.10;61.26;100182.53;5013304;28;20036;-66
2022/03/11 05:27:13;;;;;;;41.35;16.60;;;;;;;-7.05;60.88;100193.66;5013232;28;20034;-66
2022/03/11 05:29:40;;;;;;;45.42;18.88;;;;;;;-7.03;60.81;100186.34;5013137;28;20477;-66
2022/03/11 05:32:06;;;;;;;43.28;17.17;;;;;;;-6.99;60.82;100189.56;5011784;28;20026;-66
2022/03/11 05:34:31;;;;;;;41.05;16.58;;;;;;;-6.94;60.93;100182.00;5012738;28;20030;-66
2022/03/11 05:36:56;;;;;;;39.20;16.85;;;;;;;-6.92;60.68;100181.84;5013131;28;20025;-66
2022/03/11 05:39:22;;;;;;;40.28;15.35;;;;;;;-6.91;61.06;100184.38;5012973;28;20029;-66
2022/03/11 05:41:47;;;;;;;43.50;16.67;;;;;;;-6.88;60.69;100181.44;5012335;28;20437;-66
2022/03/11 05:44:16;;;;;;;40.30;16.80;;;;;;;-6.84;60.83;100186.50;5012897;28;20101;-66
2022/03/11 05:46:42;;;;;;;45.50;18.13;;;;;;;-6.82;60.59;100184.53;5012807;28;20658;-67
2022/03/11 05:49:08;;;;;;;41.97;15.93;;;;;;;-6.80;60.91;100185.22;5013126;28;20026;-66
2022/03/11 05:51:33;;;;;;;34.97;15.05;;;;;;;-6.76;61.15;100186.63;5011103;28;20026;-66
2022/03/11 05:53:58;;;;;;;39.72;16.95;;;;;;;-6.72;60.64;100193.34;5012897;28;20489;-66
2022/03/11 05:56:24;;;;;;;43.58;17.63;;;;;;;-6.68;61.18;100193.94;5012408;28;20030;-66
2022/03/11 05:58:50;;;;;;;42.03;17.58;;;;;;;-6.65;61.16;100194.47;5012787;28;20029;-67
2022/03/11 06:01:16;;;;;;;42.97;18.52;;;;;;;-6.60;60.71;100199.41;5012580;28;20025;-67
2022/03/11 06:03:42;;;;;;;44.53;17.20;;;;;;;-6.58;60.96;100186.75;5012139;28;20735;-66
2022/03/11 06:06:07;;;;;;;47.38;17.35;;;;;;;-6.51;60.74;100201.19;5011990;28;20037;-66
2022/03/11 06:08:33;;;;;;;49.00;19.70;;;;;;;-6.47;60.97;100204.44;5011673;28;20037;-66
2022/03/11 06:10:58;;;;;;;42.65;18.23;;;;;;;-6.42;60.55;100204.88;5011783;28;20104;-66
2022/03/11 06:13:23;;;;;;;48.88;18.90;;;;;;;-6.37;60.55;100204.41;5011083;28;20079;-66
2022/03/11 06:15:49;;;;;;;158.25;60.50;;;;;;;-6.33;60.83;100206.69;5011397;28;20434;-66
2022/03/11 06:18:17;;;;;;;170.13;116.65;;;;;;;-6.29;60.95;100215.25;5011490;28;20026;-67
2022/03/11 06:20:43;;;;;;;377.20;236.63;;;;;;;-6.22;60.39;100221.69;5011685;28;20041;-66
2022/03/11 06:23:09;;;;;;;120.80;58.22;;;;;;;-6.14;60.51;100218.31;5011006;28;20018;-66
2022/03/11 06:25:34;;;;;;;61.22;27.75;;;;;;;-6.06;60.62;100215.75;5010198;28;20026;-66
2022/03/11 06:27:59;;;;;;;55.25;26.80;;;;;;;-5.99;60.30;100216.84;5011594;28;20026;-66
2022/03/11 06:30:25;;;;;;;59.53;29.73;;;;;;;-5.92;59.58;100213.59;5011306;28;20041;-66
2022/03/11 06:32:51;;;;;;;242.20;69.68;;;;;;;-5.85;60.06;100209.31;5010520;28;20039;-66
2022/03/11 06:35:17;;;;;;;241.32;66.85;;;;;;;-5.77;59.55;100219.28;5009764;28;20099;-66
2022/03/11 06:37:44;;;;;;;360.13;97.03;;;;;;;-5.69;59.64;100217.56;5011446;28;20026;-66
2022/03/11 06:40:11;;;;;;;243.48;60.42;;;;;;;-5.62;59.56;100216.97;5011239;28;20104;-66
2022/03/11 06:42:38;;;;;;;292.70;76.10;;;;;;;-5.54;59.24;100217.91;5010778;28;20026;-67
2022/03/11 06:45:05;;;;;;;296.13;74.75;;;;;;;-5.46;58.63;100214.50;5011272;28;20033;-66
2022/03/11 06:47:31;;;;;;;303.50;76.65;;;;;;;-5.41;58.26;100216.75;5010974;28;20018;-66
2022/03/11 06:49:56;;;;;;;191.95;49.90;;;;;;;-5.38;58.40;100219.13;5011090;28;20532;-66
2022/03/11 06:52:22;;;;;;;241.45;66.32;;;;;;;-5.31;58.33;100222.03;5010656;28;20045;-66
2022/03/11 06:54:47;;;;;;;221.45;65.25;;;;;;;-5.22;57.99;100215.78;5011324;28;20108;-66
2022/03/11 06:57:15;;;;;;;164.05;53.20;;;;;;;-5.14;57.88;100213.22;5009609;28;20065;-66
2022/03/11 06:59:42;;;;;;;140.30;47.67;;;;;;;-5.07;57.82;100218.78;5009911;28;20458;-66
2022/03/11 07:02:08;;;;;;;94.47;37.42;;;;;;;-5.00;57.51;100219.88;5010396;28;20034;-66
2022/03/11 07:04:34;;;;;;;68.15;32.85;;;;;;;-4.97;56.95;100221.38;5011376;28;20156;-66
2022/03/11 07:06:59;;;;;;;58.90;29.00;;;;;;;-4.90;57.10;100222.47;5010822;28;20033;-66
2022/03/11 07:09:25;;;;;;;48.65;20.23;;;;;;;-4.80;56.64;100225.06;5010884;28;20042;-66
2022/03/11 07:11:51;;;;;;;43.13;18.65;;;;;;;-4.68;56.34;100223.00;5010211;28;20034;-66
2022/03/11 07:14:16;;;;;;;33.92;15.88;;;;;;;-4.59;55.97;100229.28;5011028;28;20018;-66
2022/03/11 07:16:41;;;;;;;36.15;14.52;;;;;;;-4.50;55.76;100229.22;5010648;28;20537;-66
2022/03/11 07:19:08;;;;;;;30.73;13.65;;;;;;;-4.42;55.06;100241.00;5011332;28;20088;-67
2022/03/11 07:21:34;;;;;;;26.42;11.75;;;;;;;-4.34;54.85;100238.38;5010847;28;20045;-66
2022/03/11 07:23:59;;;;;;;22.83;9.93;;;;;;;-4.24;54.26;100240.97;5010460;28;20030;-66
2022/03/11 07:26:24;;;;;;;27.83;11.63;;;;;;;-4.13;54.51;100242.53;5010959;28;20108;-67
2022/03/11 07:28:50;;;;;;;28.05;11.82;;;;;;;-4.03;54.15;100240.63;5011385;28;20044;-66
2022/03/11 07:31:16;;;;;;;28.90;12.57;;;;;;;-3.93;53.87;100240.50;5013090;28;20113;-66
2022/03/11 07:33:41;;;;;;;25.05;11.75;;;;;;;-3.80;54.04;100242.75;5030067;28;20384;-67
2022/03/11 07:36:06;;;;;;;27.67;12.00;;;;;;;-3.69;53.21;100236.31;5030393;28;20029;-66
2022/03/11 07:38:32;;;;;;;26.65;11.65;;;;;;;-3.59;52.55;100240.56;5029015;28;20029;-67
2022/03/11 07:40:58;;;;;;;30.13;11.25;;;;;;;-3.50;52.02;100240.59;5030529;28;20101;-66
2022/03/11 07:43:25;;;;;;;23.60;10.77;;;;;;;-3.45;51.20;100235.56;5033266;28;20032;-66
2022/03/11 07:45:52;;;;;;;22.10;10.68;;;;;;;-3.37;51.04;100238.28;5033267;28;20037;-67
2022/03/11 07:48:18;;;;;;;29.13;11.85;;;;;;;-3.29;51.03;100249.06;5034665;28;20082;-66
2022/03/11 07:50:44;;;;;;;25.67;11.75;;;;;;;-3.23;50.34;100246.75;5034417;28;20361;-66
2022/03/11 07:53:10;;;;;;;22.23;9.90;;;;;;;-3.18;49.69;100249.78;5033707;28;20116;-66
2022/03/11 07:55:36;;;;;;;22.67;11.68;;;;;;;-3.14;49.27;100246.59;5034287;28;20041;-63
2022/03/11 07:58:02;;;;;;;25.83;10.15;;;;;;;-3.09;48.81;100240.75;5032795;28;20454;-64
2022/03/11 08:00:27;;;;;;;81.35;25.48;;;;;;;-3.03;48.64;100242.75;5034293;28;20034;-64
2022/03/11 08:02:52;;;;;;;56.70;22.90;;;;;;;-2.94;49.25;100245.47;5024205;28;20223;-64
2022/03/11 08:05:18;;;;;;;67.28;28.95;;;;;;;-2.86;48.79;100245.50;5014366;28;20033;-63
2022/03/11 08:07:48;;;;;;;60.45;23.23;;;;;;;-2.75;47.45;100241.66;5014227;28;20096;-65
2022/03/11 08:10:15;;;;;;;53.38;22.77;;;;;;;-2.66;47.16;100237.16;5014419;28;20124;-64
2022/03/11 08:12:41;;;;;;;44.05;19.88;;;;;;;-2.59;47.46;100235.47;5013729;28;20026;-64
2022/03/11 08:15:07;;;;;;;40.20;17.40;;;;;;;-2.50;47.34;100237.16;5014197;28;20037;-64
2022/03/11 08:17:32;;;;;;;35.17;16.30;;;;;;;-2.41;47.44;100235.31;5014052;28;20030;-64
2022/03/11 08:19:57;;;;;;;28.20;14.30;;;;;;;-2.31;47.63;100243.22;5013899;28;20038;-66
2022/03/11 08:22:23;;;;;;;31.23;14.15;;;;;;;-2.19;47.62;100231.09;5011567;28;20095;-65
2022/03/11 08:24:48;;;;;;;30.55;14.85;;;;;;;-2.04;47.29;100236.66;5014411;28;20031;-66
2022/03/11 08:27:15;;;;;;;24.83;12.65;;;;;;;-1.95;46.81;100230.25;5013807;28;20367;-66
2022/03/11 08:29:40;;;;;;;22.48;11.77;;;;;;;-1.89;45.58;100228.75;5013510;28;20088;-67
2022/03/11 08:32:06;;;;;;;23.27;11.75;;;;;;;-1.85;46.38;100235.47;5013737;28;20091;-65
2022/03/11 08:34:31;;;;;;;24.98;12.57;;;;;;;-1.84;45.73;100226.38;5014071;28;20030;-64
2022/03/11 08:36:57;;;;;;;34.92;19.15;;;;;;;-1.82;45.21;100232.41;5014050;28;20119;-65
2022/03/11 08:39:22;;;;;;;123.43;32.78;;;;;;;-1.75;45.54;100235.25;4996363;28;20034;-65
2022/03/11 08:41:48;;;;;;;45.10;16.00;;;;;;;-1.66;45.58;100234.25;5013627;28;20022;-66
2022/03/11 08:44:13;;;;;;;38.53;14.02;;;;;;;-1.57;45.45;100229.66;5013772;28;20030;-65
2022/03/11 08:46:38;;;;;;;35.00;12.68;;;;;;;-1.47;44.47;100231.31;5013738;28;20343;-65
2022/03/11 08:49:06;;;;;;;61.55;19.00;;;;;;;-1.44;43.90;100231.81;5013284;28;20530;-65
2022/03/11 08:51:32;;;;;;;39.83;13.90;;;;;;;-1.37;44.51;100231.94;5012897;28;20034;-65
2022/03/11 08:53:58;;;;;;;32.28;12.77;;;;;;;-1.33;44.64;100229.75;5012551;28;20037;-65
2022/03/11 08:56:23;;;;;;;27.45;10.77;;;;;;;-1.20;44.49;100236.25;5013140;28;20030;-65
2022/03/11 08:58:49;;;;;;;26.88;11.38;;;;;;;-1.09;44.69;100229.63;5010630;28;20025;-64
2022/03/11 09:01:16;;;;;;;33.88;13.40;;;;;;;-1.06;42.71;100233.84;5013504;28;20022;-64
2022/03/11 09:03:41;;;;;;;30.15;14.48;;;;;;;-1.03;43.59;100232.63;5012463;28;20018;-65
2022/03/11 09:06:07;;;;;;;24.58;10.35;;;;;;;-0.90;44.16;100222.97;5012430;28;20025;-66
2022/03/11 09:08:32;;;;;;;23.95;9.45;;;;;;;-0.75;43.19;100224.91;5008664;28;20041;-64
2022/03/11 09:10:58;;;;;;;19.73;8.63;;;;;;;-0.63;42.77;100218.09;5012729;28;20101;-65
2022/03/11 09:13:23;;;;;;;15.25;6.93;;;;;;;-0.54;43.34;100229.63;5011900;28;20036;-64
2022/03/11 09:15:48;;;;;;;17.98;7.55;;;;;;;-0.47;41.31;100229.75;5013102;28;20014;-63
2022/03/11 09:18:14;;;;;;;15.63;7.72;;;;;;;-0.41;40.15;100217.44;5012413;28;20104;-64
2022/03/11 09:20:40;;;;;;;17.48;7.93;;;;;;;-0.35;40.36;100222.94;5011852;28;20026;-65
2022/03/11 09:23:06;;;;;;;21.67;8.07;;;;;;;-0.31;40.18;100220.69;5012706;28;20033;-65
2022/03/11 09:25:32;;;;;;;17.60;7.70;;;;;;;-0.28;39.56;100219.50;5012987;28;20026;-64
2022/03/11 09:27:57;;;;;;;13.75;6.55;;;;;;;-0.18;40.50;100222.75;5013050;28;20037;-65
2022/03/11 09:30:23;;;;;;;14.20;6.13;;;;;;;-0.07;40.01;100213.41;5010884;28;20745;-65
2022/03/11 09:32:48;;;;;;;15.50;6.95;;;;;;;0.10;39.97;100204.13;5012564;28;20022;-65
2022/03/11 09:35:15;;;;;;;13.77;6.03;;;;;;;0.24;39.98;100207.84;5012246;28;20022;-65
2022/03/11 09:37:41;;;;;;;15.00;6.70;;;;;;;0.32;40.37;100204.25;5011928;28;20084;-64
2022/03/11 09:40:08;;;;;;;16.77;7.95;;;;;;;0.41;40.17;100203.09;5011496;28;20025;-65
2022/03/11 09:42:34;;;;;;;26.52;8.25;;;;;;;0.54;40.04;100215.97;5009748;28;20026;-66
2022/03/11 09:44:59;;;;;;;19.70;7.82;;;;;;;0.66;39.56;100210.94;5012787;28;20029;-66
2022/03/11 09:47:25;;;;;;;18.58;8.38;;;;;;;0.72;38.48;100206.63;5012764;28;20474;-66
2022/03/11 09:49:51;;;;;;;18.02;8.60;;;;;;;0.79;38.89;100207.56;5007560;28;20165;-66
2022/03/11 09:52:17;;;;;;;15.52;7.88;;;;;;;0.90;39.66;100214.34;5005147;28;20030;-65
2022/03/11 09:54:45;;;;;;;17.02;8.10;;;;;;;1.03;38.42;100211.78;5012625;28;20117;-66
2022/03/11 09:57:15;;;;;;;13.80;7.28;;;;;;;1.14;38.33;100204.22;5012271;28;20386;-66
2022/03/11 09:59:40;;;;;;;15.88;7.65;;;;;;;1.24;38.48;100212.84;5011131;28;20436;-66
2022/03/11 10:02:16;;;;;;;12.15;6.60;;;;;;;1.27;37.98;100203.53;5012371;28;20034;-65
2022/03/11 10:04:47;;;;;;;14.70;7.10;;;;;;;1.25;37.49;100194.78;5008187;28;20406;-64
2022/03/11 10:07:24;;;;;;;16.08;8.05;;;;;;;1.37;36.86;100198.66;5010266;28;20030;-64
2022/03/11 10:09:50;;;;;;;15.80;7.47;;;;;;;1.47;36.14;100192.91;5007382;28;20065;-63
2022/03/11 10:12:28;;;;;;;17.20;8.48;;;;;;;1.59;36.68;100187.81;5006621;28;20068;-64
2022/03/11 10:14:59;;;;;;;13.07;7.55;;;;;;;1.66;36.34;100201.38;5006854;28;20064;-64
2022/03/11 10:17:25;;;;;;;13.68;6.88;;;;;;;1.74;35.25;100190.44;5007965;28;20025;-64
2022/03/11 10:20:03;;;;;;;14.10;6.95;;;;;;;1.84;36.14;100198.19;5004213;28;20030;-64
2022/03/11 10:22:29;;;;;;;13.48;6.80;;;;;;;1.96;35.40;100191.22;5007599;28;20034;-64
2022/03/11 10:24:55;;;;;;;15.38;7.90;;;;;;;2.04;35.94;100182.97;5011171;28;20034;-65
2022/03/11 10:27:23;;;;;;;17.63;7.65;;;;;;;2.14;36.03;100181.78;5013627;28;20105;-64
2022/03/11 10:29:50;;;;;;;18.27;9.15;;;;;;;2.20;34.87;100179.13;5008707;28;20027;-65
2022/03/11 10:32:23;;;;;;;18.13;7.40;;;;;;;2.29;34.92;100170.84;5006564;28;20026;-64
2022/03/11 10:34:48;;;;;;;36.95;12.05;;;;;;;2.36;34.17;100172.53;5018371;28;20029;-66
2022/03/11 10:37:14;;;;;;;22.17;9.82;;;;;;;2.34;32.90;100174.59;5007622;28;20029;-64
2022/03/11 10:39:45;;;;;;;13.00;7.07;;;;;;;2.30;32.49;100178.75;5015783;28;20033;-67
2022/03/11 10:42:10;;;;;;;;;;;;;;;2.30;31.36;100173.34;5004656;28;20124;-66
2022/03/11 10:44:35;;;;;;;16.83;7.32;;;;;;;2.28;33.00;100167.28;4999809;28;19921;-71
2022/03/11 10:47:20;;;;;;;12.63;6.95;;;;;;;2.27;31.98;100170.19;5008306;28;20028;-66
2022/03/11 10:49:50;;;;;;;24.13;9.80;;;;;;;2.38;32.33;100167.75;5009433;28;20141;-65
2022/03/11 10:52:39;;;;;;;22.38;8.60;;;;;;;2.48;31.93;100167.38;5007393;28;20069;-66
2022/03/11 10:55:32;;;;;;;17.20;7.57;;;;;;;2.58;32.62;100172.47;5009253;28;20040;-65
2022/03/11 10:58:04;;;;;;;16.90;7.57;;;;;;;2.67;33.20;100170.41;5008502;28;20107;-65
2022/03/11 11:00:32;;;;;;;14.77;6.57;;;;;;;2.76;30.35;100160.22;5007610;28;20040;-65
2022/03/11 11:03:02;;;;;;;15.23;6.30;;;;;;;2.82;31.70;100162.97;5009158;28;20616;-64
2022/03/11 11:05:29;;;;;;;18.35;8.20;;;;;;;2.88;32.37;100163.16;5008305;28;20025;-64
2022/03/11 11:07:56;;;;;;;14.75;6.22;;;;;;;3.01;32.23;100160.50;5009511;28;20029;-64